Phillips Ranch, California
Current Conditions -  °F | °C
As of 7:53 AM on Saturday 22 Nov 2014 (Local Time) from KCNO Reporting Station
Clear Clear  
Wind Chill: 51°   Ceiling: Unl
Heat Index: 51°   Visibility: 10mi
Dew Point: 47°   Wind: 5mph
Humidity: 86%   Direction: 270°W
Pressure: 30.12"   Gusts: NA
Location:  34.0419°N, 117.754°W
Report Text: KCNO 221553Z 27004KT 10SM CLR 11/08 A3012 RMK AO2 SLP198 T01060083
Loading
Personal Weather Stations






























Interactive Weather Map New forecast layout! Learn more

10-Day Weather Forecast

Advertisements
Track Severe Weather on mobile